Time;durP1;ratioP1;P1;durP2;ratioP2;P2;SDS_P1;SDS_P2;PMS_P1;PMS_P2;Temp;Humidity;BMP_temperature;BMP_pressure;BME280_temperature;BME280_humidity;BME280_pressure;Samples;Min_cycle;Max_cycle;Signal;HPM_P1;HPM_P2
2021/07/22 00:01:24;;;;;;;14.00;8.70;;;17.40;68.00;;;;;;5027671;28;20056;-82
2021/07/22 00:03:50;;;;;;;10.75;8.32;;;17.40;69.60;;;;;;5037967;28;20118;-82
2021/07/22 00:06:15;;;;;;;10.35;7.63;;;17.40;68.60;;;;;;5028651;28;20104;-82
2021/07/22 00:08:41;;;;;;;12.25;7.70;;;17.20;67.20;;;;;;5021291;28;20020;-81
2021/07/22 00:11:07;;;;;;;11.30;8.40;;;17.20;67.10;;;;;;5036089;28;20052;-80
2021/07/22 00:13:32;;;;;;;14.00;8.60;;;17.10;66.90;;;;;;5027894;28;20033;-81
2021/07/22 00:15:58;;;;;;;9.02;7.05;;;17.00;66.80;;;;;;5033039;28;20039;-81
2021/07/22 00:18:23;;;;;;;14.65;9.73;;;17.00;66.80;;;;;;5014979;28;20396;-81
2021/07/22 00:20:49;;;;;;;12.90;9.32;;;16.90;67.00;;;;;;5042294;28;20477;-80
2021/07/22 00:23:14;;;;;;;13.88;9.23;;;16.80;66.80;;;;;;5039644;28;20024;-81
2021/07/22 00:25:41;;;;;;;9.98;7.18;;;16.80;66.90;;;;;;5031962;28;20041;-80
2021/07/22 00:28:06;;;;;;;10.02;7.90;;;16.80;67.10;;;;;;5030981;28;20029;-81
2021/07/22 00:30:32;;;;;;;10.18;7.30;;;16.80;67.20;;;;;;5027453;28;20527;-80
2021/07/22 00:32:57;;;;;;;9.98;7.30;;;16.80;67.10;;;;;;5036021;28;20036;-81
2021/07/22 00:35:24;;;;;;;12.77;8.32;;;16.80;68.00;;;;;;5048578;28;20036;-80
2021/07/22 00:37:49;;;;;;;11.27;7.35;;;16.90;68.70;;;;;;5032236;28;20040;-80
2021/07/22 00:40:15;;;;;;;10.45;7.18;;;17.00;68.60;;;;;;5011186;28;20108;-80
2021/07/22 00:43:00;;;;;;;11.95;8.50;;;17.30;69.30;;;;;;5041872;28;20075;-80
2021/07/22 00:45:27;;;;;;;13.70;9.90;;;17.20;68.70;;;;;;5032311;28;20036;-81
2021/07/22 00:47:52;;;;;;;14.23;9.93;;;17.00;68.00;;;;;;5022161;28;20036;-80
2021/07/22 00:50:18;;;;;;;8.48;7.55;;;16.90;67.80;;;;;;5044954;28;20483;-80
2021/07/22 00:52:43;;;;;;;20.13;10.77;;;17.00;68.70;;;;;;5025210;28;20033;-80
2021/07/22 00:55:09;;;;;;;12.27;8.50;;;16.90;67.80;;;;;;5043640;28;20086;-80
2021/07/22 00:57:34;;;;;;;8.90;6.53;;;17.00;68.30;;;;;;5038455;28;20059;-80
2021/07/22 01:00:00;;;;;;;12.18;8.85;;;16.90;68.20;;;;;;5045902;28;20054;-80
2021/07/22 01:02:25;;;;;;;14.52;9.23;;;17.10;69.00;;;;;;5060048;28;20037;-80
2021/07/22 01:04:51;;;;;;;9.90;7.03;;;17.00;68.00;;;;;;5045500;28;20431;-80
2021/07/22 01:07:16;;;;;;;8.93;6.43;;;16.90;68.10;;;;;;5021661;28;20056;-80
2021/07/22 01:09:42;;;;;;;9.93;7.63;;;17.00;67.60;;;;;;5046477;28;20059;-81
2021/07/22 01:12:08;;;;;;;16.83;10.30;;;17.00;67.30;;;;;;5045332;28;20111;-80
2021/07/22 01:14:33;;;;;;;12.50;9.80;;;16.80;67.40;;;;;;5011003;28;20410;-81
2021/07/22 01:16:59;;;;;;;12.40;9.38;;;16.80;67.20;;;;;;5011466;28;21222;-81
2021/07/22 01:19:24;;;;;;;12.38;8.82;;;16.70;67.60;;;;;;5034351;28;20021;-81
2021/07/22 01:21:50;;;;;;;10.75;8.00;;;16.70;68.20;;;;;;5033938;28;20052;-81
2021/07/22 01:24:15;;;;;;;10.77;7.30;;;16.70;68.70;;;;;;5044294;28;20094;-81
2021/07/22 01:26:41;;;;;;;14.27;9.20;;;16.70;68.10;;;;;;5033342;28;20024;-81
2021/07/22 01:29:06;;;;;;;16.48;9.65;;;16.70;69.00;;;;;;5043528;28;20524;-81
2021/07/22 01:31:32;;;;;;;13.57;10.38;;;16.60;69.50;;;;;;5027571;28;20037;-81
2021/07/22 01:33:57;;;;;;;13.40;10.30;;;16.60;70.60;;;;;;5043747;28;20384;-81
2021/07/22 01:36:23;;;;;;;11.15;8.05;;;16.60;70.70;;;;;;5044975;28;20025;-81
2021/07/22 01:38:51;;;;;;;17.17;9.65;;;16.60;71.10;;;;;;5019734;28;20111;-81
2021/07/22 01:41:17;;;;;;;13.77;10.20;;;16.50;71.50;;;;;;5026948;28;20396;-81
2021/07/22 01:43:42;;;;;;;17.52;10.63;;;16.50;71.40;;;;;;5040098;28;20070;-81
2021/07/22 01:46:08;;;;;;;15.48;10.38;;;16.50;71.50;;;;;;5029297;28;20025;-80
2021/07/22 01:48:34;;;;;;;14.18;10.20;;;16.30;72.00;;;;;;5040866;28;20029;-81
2021/07/22 01:50:59;;;;;;;13.05;9.35;;;16.30;72.10;;;;;;5030787;28;20415;-80
2021/07/22 01:53:25;;;;;;;15.63;10.10;;;16.30;72.40;;;;;;5025396;28;20045;-80
2021/07/22 01:55:50;;;;;;;15.63;10.68;;;16.20;72.20;;;;;;5041973;28;20036;-81
2021/07/22 01:58:16;;;;;;;12.63;8.05;;;16.20;72.00;;;;;;5052018;28;20392;-80
2021/07/22 02:00:41;;;;;;;15.80;9.48;;;16.10;71.90;;;;;;5042018;28;20043;-81
2021/07/22 02:03:07;;;;;;;17.23;10.38;;;16.00;71.90;;;;;;5043292;28;20039;-81
2021/07/22 02:05:32;;;;;;;18.35;10.77;;;16.00;71.80;;;;;;5059770;28;20031;-80
2021/07/22 02:07:58;;;;;;;19.30;10.52;;;15.90;72.00;;;;;;5052125;28;20036;-81
2021/07/22 02:10:24;;;;;;;13.77;9.55;;;15.90;71.00;;;;;;5042506;28;20041;-81
2021/07/22 02:12:49;;;;;;;12.10;7.57;;;15.80;71.10;;;;;;5032126;28;20041;-81
2021/07/22 02:15:15;;;;;;;8.75;6.88;;;15.80;71.90;;;;;;5011269;28;20040;-81
2021/07/22 02:17:40;;;;;;;8.98;6.47;;;15.70;72.10;;;;;;5029864;28;20761;-81
2021/07/22 02:20:07;;;;;;;11.63;8.00;;;15.80;72.70;;;;;;5016324;28;20116;-81
2021/07/22 02:22:32;;;;;;;12.10;9.63;;;15.70;71.20;;;;;;5036137;28;20039;-81
2021/07/22 02:24:58;;;;;;;10.52;7.10;;;15.70;70.30;;;;;;5018650;28;20024;-80
2021/07/22 02:27:23;;;;;;;11.40;8.02;;;15.80;70.10;;;;;;5051902;28;20031;-81
2021/07/22 02:29:49;;;;;;;11.20;6.82;;;15.80;69.70;;;;;;5045672;28;20079;-81
2021/07/22 02:32:14;;;;;;;16.63;10.57;;;15.70;69.60;;;;;;5035595;28;20029;-81
2021/07/22 02:34:40;;;;;;;14.43;9.90;;;15.70;69.90;;;;;;5037006;28;20131;-81
2021/07/22 02:37:05;;;;;;;18.00;10.38;;;15.60;70.00;;;;;;5044842;28;20400;-81
2021/07/22 02:39:31;;;;;;;9.75;7.57;;;15.70;69.70;;;;;;5042782;28;20056;-81
2021/07/22 02:41:57;;;;;;;11.77;8.57;;;15.70;70.90;;;;;;5031534;28;20102;-81
2021/07/22 02:44:22;;;;;;;10.68;7.88;;;15.70;70.10;;;;;;5038891;28;20797;-81
2021/07/22 02:46:48;;;;;;;15.20;10.25;;;15.70;70.20;;;;;;5041458;28;20029;-81
2021/07/22 02:49:13;;;;;;;16.35;9.75;;;15.60;70.00;;;;;;5030757;28;20036;-81
2021/07/22 02:51:39;;;;;;;16.48;9.57;;;15.50;70.20;;;;;;5043440;28;20151;-81
2021/07/22 02:54:04;;;;;;;16.63;9.82;;;15.50;70.20;;;;;;5047795;28;20028;-81
2021/07/22 02:56:30;;;;;;;16.00;10.38;;;15.40;70.60;;;;;;5045792;28;20086;-81
2021/07/22 02:58:55;;;;;;;15.30;10.07;;;15.40;70.70;;;;;;5032578;28;20465;-81
2021/07/22 03:01:21;;;;;;;14.65;10.85;;;15.30;70.60;;;;;;5046462;28;20025;-80
2021/07/22 03:03:46;;;;;;;15.38;11.10;;;15.30;70.60;;;;;;5022050;28;20102;-81
2021/07/22 03:06:18;;;;;;;16.55;11.10;;;15.20;70.90;;;;;;5033976;28;20013;-80
2021/07/22 03:08:43;;;;;;;25.60;17.83;;;15.20;71.10;;;;;;5047722;28;20174;-80
2021/07/22 03:11:10;;;;;;;14.77;10.82;;;15.10;70.90;;;;;;5019799;28;20572;-80
2021/07/22 03:13:35;;;;;;;14.57;10.02;;;15.20;71.30;;;;;;5021216;28;20039;-79
2021/07/22 03:16:01;;;;;;;16.98;11.18;;;15.10;71.80;;;;;;5032371;28;20041;-79
2021/07/22 03:18:26;;;;;;;15.50;10.38;;;15.00;71.80;;;;;;5047496;28;20254;-79
2021/07/22 03:20:52;;;;;;;10.70;8.00;;;15.00;71.30;;;;;;5059880;28;20223;-79
2021/07/22 03:23:17;;;;;;;15.63;10.57;;;15.00;71.50;;;;;;5020603;28;20039;-79
2021/07/22 03:25:43;;;;;;;16.23;9.90;;;15.00;71.70;;;;;;5062395;28;20031;-79
2021/07/22 03:28:09;;;;;;;15.95;10.98;;;15.00;71.50;;;;;;5033751;28;20090;-79
2021/07/22 03:30:34;;;;;;;14.57;10.35;;;15.00;73.30;;;;;;5034038;28;20060;-79
2021/07/22 03:33:01;;;;;;;10.77;7.88;;;15.00;71.80;;;;;;5030608;28;20431;-79
2021/07/22 03:35:26;;;;;;;12.45;8.35;;;15.10;71.70;;;;;;5029427;28;20456;-79
2021/07/22 03:37:52;;;;;;;12.43;8.55;;;15.00;71.30;;;;;;5023941;28;20101;-80
2021/07/22 03:40:18;;;;;;;12.65;8.13;;;15.10;71.40;;;;;;5031952;28;20166;-80
2021/07/22 03:42:43;;;;;;;16.27;10.13;;;15.10;71.80;;;;;;5037348;28;20081;-79
2021/07/22 03:45:09;;;;;;;14.00;9.32;;;15.00;71.50;;;;;;5032743;28;20333;-79
2021/07/22 03:47:35;;;;;;;24.83;14.20;;;15.00;71.60;;;;;;5019446;28;20033;-79
2021/07/22 03:50:02;;;;;;;13.50;9.48;;;14.90;72.20;;;;;;5037680;28;20032;-79
2021/07/22 03:52:28;;;;;;;14.32;9.60;;;15.00;71.80;;;;;;5051335;28;20036;-80
2021/07/22 03:54:53;;;;;;;16.15;9.85;;;15.00;72.20;;;;;;5020072;28;20044;-79
2021/07/22 03:57:19;;;;;;;16.05;8.73;;;15.00;71.40;;;;;;5028457;28;20033;-79
2021/07/22 03:59:44;;;;;;;11.88;8.32;;;15.00;72.00;;;;;;5045889;28;20033;-80
2021/07/22 04:02:10;;;;;;;15.90;9.65;;;15.00;71.90;;;;;;5040199;28;20040;-79
2021/07/22 04:04:36;;;;;;;14.30;10.63;;;14.90;73.20;;;;;;5046183;28;20062;-79
2021/07/22 04:07:01;;;;;;;14.50;10.15;;;14.80;74.30;;;;;;5044509;28;20464;-79
2021/07/22 04:09:27;;;;;;;17.17;10.23;;;14.80;73.70;;;;;;5048026;28;20044;-79
2021/07/22 04:11:52;;;;;;;13.15;9.15;;;14.80;72.10;;;;;;5029297;28;20031;-79
2021/07/22 04:14:18;;;;;;;12.82;8.98;;;14.80;72.00;;;;;;5036018;28;20123;-78
2021/07/22 04:16:44;;;;;;;17.15;9.88;;;14.80;72.30;;;;;;5029304;28;20108;-79
2021/07/22 04:19:10;;;;;;;14.45;10.05;;;14.80;72.20;;;;;;5018808;28;20437;-79
2021/07/22 04:21:36;;;;;;;14.65;8.32;;;14.70;72.50;;;;;;5032110;28;20098;-79
2021/07/22 04:24:01;;;;;;;14.25;10.30;;;14.80;72.40;;;;;;5022176;28;20381;-79
2021/07/22 04:26:27;;;;;;;18.10;11.05;;;14.70;72.90;;;;;;5020365;28;20400;-79
2021/07/22 04:28:52;;;;;;;17.00;10.32;;;14.70;72.70;;;;;;5018011;28;20059;-79
2021/07/22 04:31:18;;;;;;;14.40;9.90;;;14.70;73.10;;;;;;5029818;28;20655;-78
2021/07/22 04:33:45;;;;;;;16.27;9.60;;;14.80;73.00;;;;;;5045933;28;20393;-78
2021/07/22 04:36:10;;;;;;;17.23;9.88;;;14.80;73.20;;;;;;5034623;28;20037;-79
2021/07/22 04:38:37;;;;;;;19.10;10.57;;;14.90;72.90;;;;;;5029429;28;20497;-79
2021/07/22 04:41:04;;;;;;;15.30;10.15;;;14.80;73.70;;;;;;5038740;28;20020;-79
2021/07/22 04:43:30;;;;;;;16.73;10.82;;;14.90;75.50;;;;;;5049132;28;20060;-80
2021/07/22 04:45:55;;;;;;;9.70;7.25;;;15.00;76.70;;;;;;5042384;28;20079;-80
2021/07/22 04:48:21;;;;;;;14.15;9.43;;;15.20;74.20;;;;;;5043111;28;20074;-80
2021/07/22 04:50:48;;;;;;;17.30;10.18;;;15.20;77.60;;;;;;5030262;28;20442;-80
2021/07/22 04:53:14;;;;;;;11.27;7.68;;;15.20;79.50;;;;;;5028001;28;20490;-80
2021/07/22 04:55:39;;;;;;;9.77;7.22;;;15.30;77.10;;;;;;5026724;28;20021;-80
2021/07/22 04:58:05;;;;;;;11.15;7.55;;;15.40;74.20;;;;;;5041597;28;20058;-79
2021/07/22 05:00:30;;;;;;;11.15;7.80;;;15.70;74.20;;;;;;5031971;28;20516;-80
2021/07/22 05:02:57;;;;;;;16.73;9.02;;;15.60;74.50;;;;;;5031224;28;20060;-80
2021/07/22 05:05:26;;;;;;;17.17;9.88;;;15.80;74.70;;;;;;5028656;28;20040;-79
2021/07/22 05:07:52;;;;;;;14.00;8.10;;;15.70;75.60;;;;;;5024439;28;20033;-79
2021/07/22 05:10:17;;;;;;;14.77;9.68;;;15.80;76.10;;;;;;5049519;28;20041;-80
2021/07/22 05:12:43;;;;;;;15.23;9.63;;;15.80;77.80;;;;;;5040766;28;20333;-80
2021/07/22 05:15:09;;;;;;;12.20;8.18;;;16.00;77.10;;;;;;5042961;28;20422;-80
2021/07/22 05:17:38;;;;;;;10.85;8.07;;;16.00;75.20;;;;;;5029455;28;20492;-80
2021/07/22 05:20:04;;;;;;;10.48;7.65;;;16.10;75.40;;;;;;5053734;28;20554;-79
2021/07/22 05:22:30;;;;;;;10.68;7.15;;;16.30;75.00;;;;;;5048390;28;20024;-79
2021/07/22 05:24:55;;;;;;;15.50;9.18;;;16.50;74.10;;;;;;5021152;28;20511;-81
2021/07/22 05:27:21;;;;;;;14.63;9.48;;;16.50;75.40;;;;;;5042611;28;20086;-80
2021/07/22 05:29:46;;;;;;;15.23;9.98;;;16.50;75.70;;;;;;5017782;28;20032;-80
2021/07/22 05:32:15;;;;;;;12.30;8.63;;;16.70;73.90;;;;;;5038867;28;20544;-80
2021/07/22 05:34:40;;;;;;;10.18;7.18;;;16.80;74.30;;;;;;5044797;28;20115;-80
2021/07/22 05:37:10;;;;;;;13.05;6.95;;;16.90;74.00;;;;;;5019658;28;20564;-80
2021/07/22 05:39:36;;;;;;;9.27;6.03;;;17.00;73.70;;;;;;5020760;28;20033;-80
2021/07/22 05:42:15;;;;;;;10.95;6.80;;;17.10;72.90;;;;;;5015904;28;20037;-79
2021/07/22 05:44:41;;;;;;;9.98;7.53;;;17.20;73.40;;;;;;5013955;28;20493;-80
2021/07/22 05:47:07;;;;;;;7.88;5.88;;;17.30;73.00;;;;;;5039897;28;20028;-79
2021/07/22 05:49:32;;;;;;;9.85;6.32;;;17.40;72.70;;;;;;5025331;28;20028;-78
2021/07/22 05:51:58;;;;;;;9.65;6.55;;;17.40;72.00;;;;;;5035877;28;20033;-79
2021/07/22 05:54:23;;;;;;;9.00;6.90;;;17.60;72.50;;;;;;5036087;28;20025;-78
2021/07/22 05:56:49;;;;;;;8.75;6.40;;;17.60;73.30;;;;;;5041059;28;20103;-78
2021/07/22 05:59:14;;;;;;;10.73;7.65;;;17.80;72.90;;;;;;5015799;28;20176;-78
2021/07/22 06:01:40;;;;;;;12.10;7.35;;;17.90;73.20;;;;;;5022770;28;20565;-78
2021/07/22 06:04:06;;;;;;;17.98;9.07;;;18.00;73.40;;;;;;5033010;28;20550;-78
2021/07/22 06:06:34;;;;;;;8.30;6.65;;;18.10;72.40;;;;;;5028022;28;20029;-78
2021/07/22 06:09:01;;;;;;;11.57;7.88;;;18.30;72.00;;;;;;5030256;28;20494;-78
2021/07/22 06:11:27;;;;;;;11.02;7.63;;;18.50;73.50;;;;;;5041203;28;20052;-79
2021/07/22 06:13:52;;;;;;;13.55;8.88;;;18.60;73.30;;;;;;5018363;28;20114;-79
2021/07/22 06:16:18;;;;;;;13.57;8.68;;;18.70;73.20;;;;;;5034825;28;20409;-79
2021/07/22 06:18:43;;;;;;;16.17;8.65;;;18.90;73.80;;;;;;5025945;28;20480;-79
2021/07/22 06:21:13;;;;;;;11.27;8.38;;;19.00;72.80;;;;;;5057310;28;20029;-79
2021/07/22 06:23:39;;;;;;;10.15;6.80;;;19.20;73.60;;;;;;5035094;28;20586;-79
2021/07/22 06:26:04;;;;;;;10.27;5.57;;;19.30;70.00;;;;;;5022228;28;20033;-79
2021/07/22 06:28:30;;;;;;;8.95;5.50;;;19.40;68.90;;;;;;5044091;28;20039;-78
2021/07/22 06:30:55;;;;;;;14.27;8.90;;;19.50;69.40;;;;;;5017650;28;20109;-79
2021/07/22 06:33:22;;;;;;;10.38;7.60;;;19.70;73.00;;;;;;5052398;28;20025;-79
2021/07/22 06:35:48;;;;;;;11.43;7.72;;;20.20;73.60;;;;;;5052052;28;20052;-79
2021/07/22 06:38:13;;;;;;;13.32;8.38;;;20.50;74.60;;;;;;5031491;28;20025;-80
2021/07/22 06:40:40;;;;;;;13.77;8.13;;;20.70;74.60;;;;;;5031628;28;20496;-79
2021/07/22 06:43:09;;;;;;;20.38;10.30;;;21.10;74.40;;;;;;5029591;28;20037;-80
2021/07/22 06:45:35;;;;;;;12.73;6.82;;;21.30;74.90;;;;;;5029822;28;20053;-79
2021/07/22 06:48:02;;;;;;;12.10;8.60;;;21.20;70.70;;;;;;5047144;28;20075;-80
2021/07/22 06:50:27;;;;;;;14.00;7.88;;;21.50;75.50;;;;;;5030034;28;20032;-80
2021/07/22 06:52:53;;;;;;;14.15;7.97;;;21.80;74.90;;;;;;5026697;28;20031;-80
2021/07/22 06:55:18;;;;;;;11.70;7.32;;;22.10;74.90;;;;;;5026309;28;20043;-80
2021/07/22 06:57:44;;;;;;;11.95;7.35;;;22.40;74.80;;;;;;5049303;28;20384;-80
2021/07/22 07:00:10;;;;;;;10.60;7.60;;;22.60;74.70;;;;;;5045671;28;20031;-80
2021/07/22 07:02:36;;;;;;;12.07;7.45;;;22.90;74.90;;;;;;5053032;28;20031;-80
2021/07/22 07:05:01;;;;;;;11.18;7.40;;;23.10;74.70;;;;;;5033780;28;20488;-80
2021/07/22 07:07:27;;;;;;;10.10;6.30;;;23.30;73.90;;;;;;5027282;28;20029;-80
2021/07/22 07:09:53;;;;;;;10.40;6.60;;;23.50;73.70;;;;;;5022775;28;20469;-81
2021/07/22 07:12:18;;;;;;;12.90;7.65;;;23.80;73.70;;;;;;5040791;28;20369;-81
2021/07/22 07:14:44;;;;;;;12.52;7.72;;;23.90;73.80;;;;;;5045173;28;20420;-81
2021/07/22 07:17:10;;;;;;;12.50;7.53;;;24.20;73.60;;;;;;5032423;28;20024;-81
2021/07/22 07:19:35;;;;;;;14.73;8.48;;;24.40;72.60;;;;;;5028617;28;20081;-81
2021/07/22 07:22:01;;;;;;;19.63;9.18;;;24.70;72.40;;;;;;5043021;28;20032;-81
2021/07/22 07:24:26;;;;;;;13.20;7.90;;;24.80;71.80;;;;;;5027482;28;20044;-81
2021/07/22 07:26:52;;;;;;;21.98;8.68;;;25.00;71.90;;;;;;5039194;28;20017;-81
2021/07/22 07:29:17;;;;;;;19.20;8.73;;;25.10;71.10;;;;;;5022964;28;20056;-81
2021/07/22 07:31:43;;;;;;;9.75;6.95;;;25.20;70.70;;;;;;5064359;28;20104;-81
2021/07/22 07:34:08;;;;;;;10.55;6.45;;;25.20;69.20;;;;;;5048357;28;20163;-81
2021/07/22 07:36:39;;;;;;;12.20;7.70;;;25.20;69.90;;;;;;5035524;28;20051;-81
2021/07/22 07:39:04;;;;;;;11.13;6.75;;;25.40;70.10;;;;;;5022743;28;20059;-81
2021/07/22 07:41:30;;;;;;;12.70;7.72;;;25.30;69.00;;;;;;5043985;28;20037;-81
2021/07/22 07:43:55;;;;;;;13.43;7.22;;;25.50;69.30;;;;;;5021143;28;20028;-81
2021/07/22 07:46:21;;;;;;;17.70;8.20;;;25.70;68.40;;;;;;5027131;28;20388;-81
2021/07/22 07:48:47;;;;;;;12.88;8.40;;;26.10;67.50;;;;;;5034256;28;20032;-82
2021/07/22 07:51:12;;;;;;;15.13;8.48;;;26.40;67.70;;;;;;5020349;28;20032;-81
2021/07/22 07:53:38;;;;;;;10.05;6.63;;;26.40;66.40;;;;;;5020045;28;20029;-82
2021/07/22 07:56:04;;;;;;;13.02;6.72;;;26.60;65.90;;;;;;5021661;28;20072;-82
2021/07/22 07:58:29;;;;;;;10.10;6.45;;;26.80;64.40;;;;;;5022444;28;20029;-82
2021/07/22 08:00:55;;;;;;;8.45;6.55;;;26.70;66.40;;;;;;5046708;28;20037;-82
2021/07/22 08:03:20;;;;;;;9.30;5.82;;;27.00;64.80;;;;;;5024411;28;20117;-83
2021/07/22 08:05:47;;;;;;;9.82;5.85;;;27.00;63.40;;;;;;5032479;28;20044;-82
2021/07/22 08:08:12;;;;;;;12.63;9.07;;;27.10;64.80;;;;;;5032475;28;20044;-82
2021/07/22 08:10:41;;;;;;;13.50;7.55;;;27.20;65.00;;;;;;5055173;28;20083;-82
2021/07/22 08:13:10;;;;;;;10.30;7.25;;;27.20;64.50;;;;;;5035098;28;20389;-83
2021/07/22 08:15:36;;;;;;;11.93;7.30;;;27.40;63.40;;;;;;5026763;28;20373;-83
2021/07/22 08:18:02;;;;;;;12.73;7.13;;;27.60;60.70;;;;;;5035694;28;20044;-83
2021/07/22 08:20:27;;;;;;;12.38;8.35;;;27.50;63.90;;;;;;5034698;28;20032;-84
2021/07/22 08:22:53;;;;;;;10.40;7.05;;;28.00;63.40;;;;;;5026241;28;20025;-84
2021/07/22 08:25:18;;;;;;;9.48;6.65;;;28.30;60.90;;;;;;5052521;28;20111;-83
2021/07/22 08:27:45;;;;;;;10.90;6.70;;;28.10;61.70;;;;;;5036322;28;20120;-84
2021/07/22 08:30:11;;;;;;;10.00;7.25;;;28.20;61.00;;;;;;5037326;28;20546;-83
2021/07/22 08:32:37;;;;;;;11.57;6.93;;;28.40;60.80;;;;;;5048455;28;20552;-83
2021/07/22 08:35:02;;;;;;;9.38;6.53;;;28.60;61.30;;;;;;5038421;28;20032;-83
2021/07/22 08:37:28;;;;;;;13.13;8.20;;;28.90;60.20;;;;;;5055760;28;20044;-82
2021/07/22 08:39:57;;;;;;;12.63;7.40;;;28.90;59.90;;;;;;5025255;28;20033;-82
2021/07/22 08:42:25;;;;;;;9.43;6.00;;;29.20;59.20;;;;;;5029069;28;20041;-82
2021/07/22 08:44:50;;;;;;;9.48;6.97;;;29.40;58.50;;;;;;5050506;28;20476;-81
2021/07/22 08:47:16;;;;;;;9.75;7.30;;;29.40;58.10;;;;;;5032368;28;20025;-82
2021/07/22 08:49:41;;;;;;;10.40;7.35;;;29.50;57.90;;;;;;5027987;28;20151;-80
2021/07/22 08:52:10;;;;;;;10.57;6.68;;;29.70;57.70;;;;;;5014501;28;20043;-81
2021/07/22 08:54:36;;;;;;;11.50;8.38;;;29.70;57.90;;;;;;5041641;28;20099;-80
2021/07/22 08:57:02;;;;;;;15.80;9.50;;;29.90;58.10;;;;;;5047232;28;20067;-80
2021/07/22 08:59:29;;;;;;;9.77;6.70;;;30.60;56.90;;;;;;5045766;28;20437;-79
2021/07/22 09:01:54;;;;;;;12.25;8.88;;;30.70;55.80;;;;;;5031627;28;20052;-79
2021/07/22 09:04:20;;;;;;;10.13;8.18;;;30.90;55.30;;;;;;5028014;28;20037;-79
2021/07/22 09:06:45;;;;;;;11.57;8.23;;;30.90;54.90;;;;;;5018094;28;20028;-79
2021/07/22 09:09:16;;;;;;;10.10;7.50;;;31.10;54.30;;;;;;5044203;28;20039;-78
2021/07/22 09:11:59;;;;;;;12.20;7.63;;;30.90;54.00;;;;;;5014878;28;20111;-78
2021/07/22 09:14:26;;;;;;;11.15;7.15;;;30.90;54.60;;;;;;5011479;28;20032;-77
2021/07/22 09:16:52;;;;;;;8.38;7.03;;;30.60;54.30;;;;;;5018383;28;20028;-77
2021/07/22 09:19:36;;;;;;;13.85;8.55;;;30.70;54.80;;;;;;5057055;28;20021;-77
2021/07/22 09:22:02;;;;;;;12.30;8.07;;;31.20;53.90;;;;;;5030764;28;20025;-77
2021/07/22 09:24:27;;;;;;;10.52;7.88;;;31.20;53.70;;;;;;5043207;28;20059;-78
2021/07/22 09:26:54;;;;;;;10.55;7.57;;;31.30;52.60;;;;;;5016795;28;20024;-77
2021/07/22 09:29:20;;;;;;;13.27;9.45;;;31.30;52.80;;;;;;5033601;28;20029;-77
2021/07/22 09:31:46;;;;;;;9.98;7.13;;;31.60;53.00;;;;;;5032714;28;20051;-77
2021/07/22 09:34:15;;;;;;;13.85;7.78;;;31.80;52.50;;;;;;5036523;28;20028;-77
2021/07/22 09:36:41;;;;;;;10.90;7.50;;;31.70;52.30;;;;;;5045509;28;20083;-77
2021/07/22 09:39:20;;;;;;;14.10;8.15;;;31.80;52.20;;;;;;5030351;28;20037;-77
2021/07/22 09:41:57;;;;;;;9.77;7.45;;;32.10;52.80;;;;;;5036353;28;20036;-77
2021/07/22 09:44:27;;;;;;;15.88;8.68;;;32.50;50.50;;;;;;5014648;28;20021;-77
2021/07/22 09:46:52;;;;;;;13.95;9.13;;;32.80;51.10;;;;;;5046103;28;20025;-77
2021/07/22 09:49:18;;;;;;;12.80;9.13;;;33.00;50.60;;;;;;5028507;28;20021;-77
2021/07/22 09:51:43;;;;;;;10.20;7.90;;;33.50;48.80;;;;;;5034090;28;20087;-77
2021/07/22 09:54:10;;;;;;;15.40;8.65;;;33.40;48.70;;;;;;5044984;28;20106;-77
2021/07/22 09:56:38;;;;;;;11.23;8.32;;;32.80;48.50;;;;;;5015772;28;20029;-77
2021/07/22 09:59:05;;;;;;;12.38;9.05;;;32.70;50.10;;;;;;5030761;28;20484;-77
2021/07/22 10:01:31;;;;;;;11.30;8.00;;;32.80;48.80;;;;;;5028151;28;20018;-77
2021/07/22 10:03:56;;;;;;;10.63;8.02;;;32.60;49.90;;;;;;5028117;28;20033;-76
2021/07/22 10:06:22;;;;;;;18.10;10.70;;;33.00;48.70;;;;;;5024697;28;20051;-77
2021/07/22 10:08:47;;;;;;;9.27;7.60;;;33.30;48.20;;;;;;5031742;28;20426;-77
2021/07/22 10:11:13;;;;;;;11.00;8.10;;;33.20;47.60;;;;;;5018585;28;20040;-77
2021/07/22 10:13:43;;;;;;;15.82;10.13;;;33.20;48.40;;;;;;5028990;28;20033;-77
2021/07/22 10:16:11;;;;;;;10.57;8.50;;;33.40;46.80;;;;;;5052620;28;20408;-77
2021/07/22 10:18:43;;;;;;;13.30;9.95;;;33.60;47.50;;;;;;5051400;28;20025;-77
2021/07/22 10:21:08;;;;;;;12.18;9.15;;;33.70;47.40;;;;;;5037239;28;20039;-77
2021/07/22 10:23:34;;;;;;;9.35;6.78;;;33.90;46.40;;;;;;5025218;28;20388;-77
2021/07/22 10:25:59;;;;;;;9.63;8.05;;;34.00;46.30;;;;;;5050989;28;20035;-77
2021/07/22 10:28:25;;;;;;;12.57;9.68;;;33.60;46.30;;;;;;5026017;28;20028;-77
2021/07/22 10:30:50;;;;;;;11.05;8.55;;;33.80;46.60;;;;;;5034288;28;20032;-77
2021/07/22 10:33:19;;;;;;;14.68;9.88;;;33.80;46.70;;;;;;5012387;28;20029;-76
2021/07/22 10:35:44;;;;;;;11.18;8.10;;;33.70;46.60;;;;;;5018260;28;20043;-77
2021/07/22 10:38:27;;;;;;;11.73;9.02;;;33.60;46.20;;;;;;5040085;28;20032;-77
2021/07/22 10:40:57;;;;;;;11.40;8.48;;;34.00;46.90;;;;;;5039813;28;20025;-77
2021/07/22 10:43:32;;;;;;;9.65;7.88;;;33.90;46.70;;;;;;5041936;28;20040;-77
2021/07/22 10:45:58;;;;;;;13.43;10.73;;;34.40;46.50;;;;;;5043967;28;20029;-77
2021/07/22 10:48:26;;;;;;;13.98;9.80;;;34.20;45.50;;;;;;5040817;28;20029;-77
2021/07/22 10:50:55;;;;;;;21.05;11.50;;;34.10;46.50;;;;;;5034168;28;20142;-77
2021/07/22 10:53:45;;;;;;;11.98;9.93;;;35.00;46.60;;;;;;5042794;28;20029;-77
2021/07/22 10:56:13;;;;;;;10.30;8.45;;;35.20;45.90;;;;;;5056324;28;20032;-77
2021/07/22 10:58:39;;;;;;;24.83;15.10;;;35.40;45.50;;;;;;5042685;28;20139;-76
2021/07/22 11:01:05;;;;;;;18.88;11.98;;;35.20;45.00;;;;;;5059835;28;20123;-76
2021/07/22 11:03:36;;;;;;;17.98;11.95;;;35.40;44.20;;;;;;5025627;28;20029;-77
2021/07/22 11:06:03;;;;;;;17.58;11.55;;;35.30;44.50;;;;;;5042556;28;20594;-77
2021/07/22 11:08:29;;;;;;;14.80;11.30;;;35.30;43.90;;;;;;5055170;28;20070;-77
2021/07/22 11:11:01;;;;;;;17.65;13.13;;;35.10;44.00;;;;;;5033336;28;20175;-77
2021/07/22 11:13:39;;;;;;;22.73;15.57;;;34.90;43.80;;;;;;5048782;28;20357;-77
2021/07/22 11:16:06;;;;;;;19.08;14.13;;;34.70;44.30;;;;;;5061721;28;20039;-77
2021/07/22 11:18:43;;;;;;;20.83;13.68;;;34.40;44.50;;;;;;5018928;28;20029;-77
2021/07/22 11:21:09;;;;;;;20.15;14.07;;;34.30;44.90;;;;;;5057711;28;20032;-77
2021/07/22 11:23:35;;;;;;;11.75;9.65;;;34.00;44.70;;;;;;5043209;28;20032;-77
2021/07/22 11:26:01;;;;;;;15.88;11.55;;;33.90;45.80;;;;;;5049609;28;20029;-77
2021/07/22 11:28:26;;;;;;;16.42;9.85;;;33.90;45.10;;;;;;5044154;28;20025;-76
2021/07/22 11:31:06;;;;;;;20.38;14.27;;;33.80;46.20;;;;;;5049838;28;20488;-77
2021/07/22 11:33:33;;;;;;;23.65;17.88;;;33.90;45.70;;;;;;5013709;28;20384;-77
2021/07/22 11:36:00;;;;;;;18.45;13.07;;;34.40;44.90;;;;;;5039919;28;20377;-77
2021/07/22 11:38:25;;;;;;;21.15;16.83;;;34.50;44.50;;;;;;5045321;28;20033;-77
2021/07/22 11:40:51;;;;;;;20.88;14.13;;;34.60;44.90;;;;;;5014102;28;21043;-77
2021/07/22 11:43:45;;;;;;;19.00;12.23;;;35.00;44.20;;;;;;5050320;28;20445;-76
2021/07/22 11:46:11;;;;;;;20.52;13.48;;;35.00;44.20;;;;;;5030447;28;20056;-76
2021/07/22 11:48:38;;;;;;;13.02;10.98;;;35.50;43.20;;;;;;5043275;28;20036;-77
2021/07/22 11:51:09;;;;;;;20.05;13.98;;;35.70;42.90;;;;;;5038530;28;20047;-76
2021/07/22 11:53:35;;;;;;;14.48;11.02;;;35.90;44.50;;;;;;5030246;28;20044;-77
2021/07/22 11:56:17;;;;;;;16.27;11.40;;;36.10;44.20;;;;;;5032003;28;20041;-77
2021/07/22 11:58:46;;;;;;;13.95;9.77;;;36.20;44.50;;;;;;5030736;28;20056;-77
2021/07/22 12:01:12;;;;;;;17.20;11.32;;;36.70;44.00;;;;;;5037894;28;20066;-77
2021/07/22 12:03:38;;;;;;;15.85;12.20;;;36.70;42.60;;;;;;5041650;28;20029;-77
2021/07/22 12:06:03;;;;;;;18.05;13.48;;;36.80;42.00;;;;;;5031248;28;20090;-76
2021/07/22 12:08:29;;;;;;;16.38;11.65;;;36.90;41.90;;;;;;5044778;28;20032;-77
2021/07/22 12:10:59;;;;;;;20.83;15.85;;;36.80;41.20;;;;;;5032434;28;20512;-77
2021/07/22 12:13:24;;;;;;;18.92;12.88;;;36.80;40.90;;;;;;5040901;28;20496;-77
2021/07/22 12:15:50;;;;;;;18.60;12.25;;;36.70;41.40;;;;;;5045322;28;20119;-77
2021/07/22 12:18:15;;;;;;;20.90;15.38;;;36.50;41.80;;;;;;5046740;28;20890;-77
2021/07/22 12:20:41;;;;;;;14.73;10.07;;;36.50;41.00;;;;;;5045391;28;20107;-77
2021/07/22 12:23:45;;;;;;;14.07;11.05;;;36.30;42.10;;;;;;5057776;28;20113;-77
2021/07/22 12:26:11;;;;;;;13.07;10.52;;;36.30;42.20;;;;;;4951106;28;20062;-77
2021/07/22 12:28:36;;;;;;;13.98;10.40;;;36.40;42.90;;;;;;4946996;28;20062;-77
2021/07/22 12:31:18;;;;;;;15.23;10.00;;;36.60;43.50;;;;;;4986364;28;20119;-77
2021/07/22 12:33:54;;;;;;;13.27;9.73;;;36.90;42.60;;;;;;5043842;28;20082;-76